sensor_id;sensor_type;location;lat;lon;timestamp;pressure;altitude;pressure_sealevel;temperature;humidity
60228;BME280;46091;46.512;6.626;2023-03-24T06:20:36;96463.28;;;14.51;69.78
60228;BME280;46091;46.512;6.626;2023-03-24T06:22:39;96465.53;;;14.78;69.27
60228;BME280;46091;46.512;6.626;2023-03-24T06:24:43;96464.22;;;14.99;68.75
60228;BME280;46091;46.512;6.626;2023-03-24T06:26:47;96456.72;;;15.19;68.43
60228;BME280;46091;46.512;6.626;2023-03-24T06:28:50;96445.59;;;15.34;67.96
60228;BME280;46091;46.512;6.626;2023-03-24T06:30:53;96450.94;;;15.46;68.00
60228;BME280;46091;46.512;6.626;2023-03-24T06:32:57;96445.03;;;15.55;67.40
60228;BME280;46091;46.512;6.626;2023-03-24T06:35:00;96439.94;;;15.65;67.35
60228;BME280;46091;46.512;6.626;2023-03-24T06:37:04;96445.16;;;15.72;67.06
60228;BME280;46091;46.512;6.626;2023-03-24T06:39:07;96437.03;;;15.79;67.09
60228;BME280;46091;46.512;6.626;2023-03-24T06:41:10;96434.69;;;15.82;66.82
60228;BME280;46091;46.512;6.626;2023-03-24T06:43:13;96427.88;;;15.86;66.79
60228;BME280;46091;46.512;6.626;2023-03-24T06:45:16;96441.53;;;15.90;66.48
60228;BME280;46091;46.512;6.626;2023-03-24T06:47:19;96433.88;;;15.93;66.63
60228;BME280;46091;46.512;6.626;2023-03-24T06:49:22;96445.09;;;15.95;66.37
60228;BME280;46091;46.512;6.626;2023-03-24T06:51:25;96444.91;;;15.97;66.27
60228;BME280;46091;46.512;6.626;2023-03-24T06:53:29;96436.66;;;15.98;66.14
60228;BME280;46091;46.512;6.626;2023-03-24T06:55:33;96436.41;;;16.00;66.09
60228;BME280;46091;46.512;6.626;2023-03-24T06:57:35;96440.69;;;16.01;66.05
60228;BME280;46091;46.512;6.626;2023-03-24T06:59:39;96433.03;;;16.05;66.09
60228;BME280;46091;46.512;6.626;2023-03-24T07:01:42;96438.69;;;16.08;65.96
60228;BME280;46091;46.512;6.626;2023-03-24T07:03:44;96432.91;;;16.11;65.81
60228;BME280;46091;46.512;6.626;2023-03-24T07:05:49;96440.91;;;16.11;65.79
60228;BME280;46091;46.512;6.626;2023-03-24T07:07:52;96440.09;;;16.11;65.54
60228;BME280;46091;46.512;6.626;2023-03-24T07:10:16;96445.19;;;16.12;65.49
60228;BME280;46091;46.512;6.626;2023-03-24T07:12:20;96449.56;;;16.18;65.24
60228;BME280;46091;46.512;6.626;2023-03-24T07:14:23;96447.25;;;16.22;65.41
60228;BME280;46091;46.512;6.626;2023-03-24T07:16:27;96453.16;;;16.24;65.28
60228;BME280;46091;46.512;6.626;2023-03-24T07:18:29;96458.00;;;16.27;64.99
60228;BME280;46091;46.512;6.626;2023-03-24T07:20:32;96459.88;;;16.26;65.05
60228;BME280;46091;46.512;6.626;2023-03-24T07:22:35;96468.69;;;16.27;64.87
60228;BME280;46091;46.512;6.626;2023-03-24T07:24:38;96455.59;;;16.25;64.91
60228;BME280;46091;46.512;6.626;2023-03-24T07:26:43;96469.72;;;16.26;65.00
60228;BME280;46091;46.512;6.626;2023-03-24T07:28:46;96476.91;;;16.25;65.00
60228;BME280;46091;46.512;6.626;2023-03-24T07:30:50;96473.19;;;16.26;64.85
60228;BME280;46091;46.512;6.626;2023-03-24T07:32:56;96479.03;;;16.23;64.68
60228;BME280;46091;46.512;6.626;2023-03-24T07:34:58;96477.16;;;16.24;64.65
60228;BME280;46091;46.512;6.626;2023-03-24T07:37:02;96489.69;;;16.23;64.54
60228;BME280;46091;46.512;6.626;2023-03-24T07:39:04;96493.41;;;16.22;64.53
60228;BME280;46091;46.512;6.626;2023-03-24T07:41:09;96498.75;;;16.22;64.51
60228;BME280;46091;46.512;6.626;2023-03-24T07:43:13;96496.06;;;16.22;64.28
60228;BME280;46091;46.512;6.626;2023-03-24T07:45:16;96489.94;;;16.22;64.40
60228;BME280;46091;46.512;6.626;2023-03-24T07:47:19;96492.13;;;16.25;64.35
60228;BME280;46091;46.512;6.626;2023-03-24T07:49:22;96484.91;;;16.25;64.19
60228;BME280;46091;46.512;6.626;2023-03-24T07:51:25;96489.22;;;16.26;64.05
60228;BME280;46091;46.512;6.626;2023-03-24T07:53:28;96469.16;;;16.24;63.71
60228;BME280;46091;46.512;6.626;2023-03-24T07:55:31;96478.22;;;16.23;63.92
60228;BME280;46091;46.512;6.626;2023-03-24T07:57:34;96473.69;;;16.23;63.82
60228;BME280;46091;46.512;6.626;2023-03-24T07:59:39;96473.19;;;16.26;63.71
60228;BME280;46091;46.512;6.626;2023-03-24T08:01:43;96472.16;;;16.27;63.68
60228;BME280;46091;46.512;6.626;2023-03-24T08:03:49;96474.81;;;16.27;63.47
60228;BME280;46091;46.512;6.626;2023-03-24T08:05:55;96468.91;;;16.25;63.55
60228;BME280;46091;46.512;6.626;2023-03-24T08:07:58;96462.53;;;16.26;63.29
60228;BME280;46091;46.512;6.626;2023-03-24T08:10:01;96466.25;;;16.25;63.35
60228;BME280;46091;46.512;6.626;2023-03-24T08:12:07;96459.06;;;16.26;63.26
60228;BME280;46091;46.512;6.626;2023-03-24T08:14:20;96463.00;;;16.23;63.12
60228;BME280;46091;46.512;6.626;2023-03-24T08:16:28;96462.78;;;16.25;62.96
60228;BME280;46091;46.512;6.626;2023-03-24T08:18:30;96457.19;;;16.26;63.08
60228;BME280;46091;46.512;6.626;2023-03-24T08:20:35;96464.97;;;16.28;63.10
60228;BME280;46091;46.512;6.626;2023-03-24T08:22:38;96461.41;;;16.22;63.15
60228;BME280;46091;46.512;6.626;2023-03-24T08:24:41;96468.72;;;16.15;63.08
60228;BME280;46091;46.512;6.626;2023-03-24T08:26:44;96465.34;;;16.08;63.17
60228;BME280;46091;46.512;6.626;2023-03-24T08:28:57;96467.00;;;16.09;63.26
60228;BME280;46091;46.512;6.626;2023-03-24T08:31:00;96465.72;;;16.12;62.87
60228;BME280;46091;46.512;6.626;2023-03-24T08:33:04;96466.53;;;16.12;62.87
60228;BME280;46091;46.512;6.626;2023-03-24T08:35:08;96462.31;;;16.16;62.86
60228;BME280;46091;46.512;6.626;2023-03-24T08:37:13;96458.16;;;16.20;62.67
60228;BME280;46091;46.512;6.626;2023-03-24T08:39:16;96451.53;;;16.23;62.58
60228;BME280;46091;46.512;6.626;2023-03-24T08:41:19;96456.63;;;16.24;62.36
60228;BME280;46091;46.512;6.626;2023-03-24T08:43:22;96453.41;;;16.22;62.41
60228;BME280;46091;46.512;6.626;2023-03-24T08:45:28;96445.16;;;16.24;62.49
60228;BME280;46091;46.512;6.626;2023-03-24T08:47:31;96447.66;;;16.30;62.24
60228;BME280;46091;46.512;6.626;2023-03-24T08:49:36;96458.13;;;16.32;62.13
60228;BME280;46091;46.512;6.626;2023-03-24T08:51:39;96459.50;;;16.35;61.98
60228;BME280;46091;46.512;6.626;2023-03-24T08:53:42;96459.00;;;16.38;61.88
60228;BME280;46091;46.512;6.626;2023-03-24T08:55:45;96455.66;;;16.42;61.80
60228;BME280;46091;46.512;6.626;2023-03-24T08:57:48;96450.41;;;16.47;61.71
60228;BME280;46091;46.512;6.626;2023-03-24T08:59:51;96456.06;;;16.51;61.63
60228;BME280;46091;46.512;6.626;2023-03-24T09:01:54;96456.63;;;16.53;61.58
60228;BME280;46091;46.512;6.626;2023-03-24T09:03:57;96450.84;;;16.56;61.52
60228;BME280;46091;46.512;6.626;2023-03-24T09:06:01;96445.25;;;16.57;61.50
60228;BME280;46091;46.512;6.626;2023-03-24T09:08:04;96446.56;;;16.55;61.36
60228;BME280;46091;46.512;6.626;2023-03-24T09:10:09;96451.88;;;16.55;61.47
60228;BME280;46091;46.512;6.626;2023-03-24T09:12:12;96456.16;;;16.56;61.31
60228;BME280;46091;46.512;6.626;2023-03-24T09:14:16;96455.69;;;16.59;61.31
60228;BME280;46091;46.512;6.626;2023-03-24T09:16:19;96453.69;;;16.66;61.26
60228;BME280;46091;46.512;6.626;2023-03-24T09:18:24;96452.19;;;16.70;61.06
60228;BME280;46091;46.512;6.626;2023-03-24T09:20:27;96451.00;;;16.78;60.90
60228;BME280;46091;46.512;6.626;2023-03-24T09:22:31;96448.97;;;16.85;60.72
60228;BME280;46091;46.512;6.626;2023-03-24T09:24:34;96436.84;;;16.94;60.67
60228;BME280;46091;46.512;6.626;2023-03-24T09:26:37;96426.25;;;16.99;60.49
60228;BME280;46091;46.512;6.626;2023-03-24T09:28:40;96418.56;;;17.03;60.39
60228;BME280;46091;46.512;6.626;2023-03-24T09:30:43;96426.09;;;17.06;60.35
60228;BME280;46091;46.512;6.626;2023-03-24T09:32:46;96419.44;;;17.08;60.45
60228;BME280;46091;46.512;6.626;2023-03-24T09:34:49;96426.63;;;17.08;60.40
60228;BME280;46091;46.512;6.626;2023-03-24T09:36:52;96429.88;;;17.10;60.45
60228;BME280;46091;46.512;6.626;2023-03-24T09:38:56;96412.81;;;17.11;60.12
60228;BME280;46091;46.512;6.626;2023-03-24T09:41:00;96425.13;;;17.12;60.28
60228;BME280;46091;46.512;6.626;2023-03-24T09:43:07;96417.13;;;17.12;60.14
60228;BME280;46091;46.512;6.626;2023-03-24T09:45:12;96421.66;;;17.11;60.05
60228;BME280;46091;46.512;6.626;2023-03-24T09:47:24;96428.34;;;17.14;60.04
60228;BME280;46091;46.512;6.626;2023-03-24T09:49:31;96418.53;;;17.20;60.03
60228;BME280;46091;46.512;6.626;2023-03-24T09:51:40;96430.84;;;17.21;59.67
60228;BME280;46091;46.512;6.626;2023-03-24T09:53:49;96427.47;;;17.25;59.46
60228;BME280;46091;46.512;6.626;2023-03-24T09:55:57;96416.78;;;17.25;59.74
60228;BME280;46091;46.512;6.626;2023-03-24T09:58:05;96414.97;;;17.31;59.66
60228;BME280;46091;46.512;6.626;2023-03-24T10:00:18;96422.28;;;17.35;59.52
60228;BME280;46091;46.512;6.626;2023-03-24T10:02:27;96424.19;;;17.40;59.45
60228;BME280;46091;46.512;6.626;2023-03-24T10:04:30;96422.91;;;17.42;59.40
60228;BME280;46091;46.512;6.626;2023-03-24T10:06:36;96421.28;;;17.41;59.35
60228;BME280;46091;46.512;6.626;2023-03-24T10:08:42;96416.50;;;17.43;59.20
60228;BME280;46091;46.512;6.626;2023-03-24T10:10:55;96413.81;;;17.43;59.13
60228;BME280;46091;46.512;6.626;2023-03-24T10:13:05;96425.56;;;17.42;59.22
60228;BME280;46091;46.512;6.626;2023-03-24T10:15:18;96433.84;;;17.41;59.11
60228;BME280;46091;46.512;6.626;2023-03-24T10:17:35;96446.31;;;17.35;58.91
60228;BME280;46091;46.512;6.626;2023-03-24T10:19:46;96437.09;;;17.26;59.14
60228;BME280;46091;46.512;6.626;2023-03-24T10:21:55;96455.47;;;17.23;59.04
60228;BME280;46091;46.512;6.626;2023-03-24T10:24:06;96424.94;;;17.18;58.84
60228;BME280;46091;46.512;6.626;2023-03-24T10:26:23;96435.22;;;17.10;58.88
60228;BME280;46091;46.512;6.626;2023-03-24T10:28:37;96447.13;;;17.02;58.90
60228;BME280;46091;46.512;6.626;2023-03-24T10:30:44;96445.75;;;17.00;58.83
60228;BME280;46091;46.512;6.626;2023-03-24T10:32:50;96450.75;;;16.96;58.84
60228;BME280;46091;46.512;6.626;2023-03-24T10:34:56;96458.69;;;16.91;58.98
60228;BME280;46091;46.512;6.626;2023-03-24T10:37:09;96459.75;;;16.90;58.90
60228;BME280;46091;46.512;6.626;2023-03-24T10:39:14;96464.03;;;16.91;58.72
60228;BME280;46091;46.512;6.626;2023-03-24T10:41:28;96466.69;;;16.91;58.78
60228;BME280;46091;46.512;6.626;2023-03-24T10:43:32;96462.41;;;16.90;58.68
60228;BME280;46091;46.512;6.626;2023-03-24T10:45:38;96464.84;;;16.92;58.94
60228;BME280;46091;46.512;6.626;2023-03-24T10:47:46;96471.31;;;16.96;58.85
60228;BME280;46091;46.512;6.626;2023-03-24T10:49:52;96463.84;;;16.98;58.64
60228;BME280;46091;46.512;6.626;2023-03-24T10:51:59;96468.75;;;17.01;58.61
60228;BME280;46091;46.512;6.626;2023-03-24T10:54:12;96455.69;;;17.04;58.63
60228;BME280;46091;46.512;6.626;2023-03-24T10:56:20;96446.63;;;17.05;58.63
60228;BME280;46091;46.512;6.626;2023-03-24T10:58:40;96465.66;;;17.09;58.62
60228;BME280;46091;46.512;6.626;2023-03-24T11:00:47;96477.38;;;17.08;58.53
60228;BME280;46091;46.512;6.626;2023-03-24T11:02:55;96476.34;;;17.09;58.67
60228;BME280;46091;46.512;6.626;2023-03-24T11:05:01;96474.25;;;17.11;58.41
60228;BME280;46091;46.512;6.626;2023-03-24T11:07:13;96469.72;;;17.11;58.24
60228;BME280;46091;46.512;6.626;2023-03-24T11:09:19;96471.78;;;17.09;58.43
60228;BME280;46091;46.512;6.626;2023-03-24T11:11:30;96466.69;;;17.08;58.28
60228;BME280;46091;46.512;6.626;2023-03-24T11:13:34;96468.56;;;17.07;58.36
60228;BME280;46091;46.512;6.626;2023-03-24T11:15:52;96470.78;;;17.10;58.24
60228;BME280;46091;46.512;6.626;2023-03-24T11:17:56;96473.44;;;17.10;58.20
60228;BME280;46091;46.512;6.626;2023-03-24T11:19:59;96481.69;;;17.09;58.29
60228;BME280;46091;46.512;6.626;2023-03-24T11:22:05;96476.56;;;17.07;58.04
60228;BME280;46091;46.512;6.626;2023-03-24T11:24:11;96475.53;;;17.08;58.19
60228;BME280;46091;46.512;6.626;2023-03-24T11:26:18;96472.53;;;17.05;57.99
60228;BME280;46091;46.512;6.626;2023-03-24T11:28:25;96480.31;;;17.06;58.11
60228;BME280;46091;46.512;6.626;2023-03-24T11:30:32;96481.59;;;17.04;57.88
60228;BME280;46091;46.512;6.626;2023-03-24T11:32:44;96468.50;;;17.02;58.08
60228;BME280;46091;46.512;6.626;2023-03-24T11:34:58;96469.19;;;16.98;58.07
60228;BME280;46091;46.512;6.626;2023-03-24T11:37:09;96472.91;;;16.97;58.12
60228;BME280;46091;46.512;6.626;2023-03-24T11:39:16;96481.50;;;16.99;57.96
60228;BME280;46091;46.512;6.626;2023-03-24T11:41:21;96475.34;;;16.98;57.96
60228;BME280;46091;46.512;6.626;2023-03-24T11:43:25;96477.22;;;16.98;57.93
60228;BME280;46091;46.512;6.626;2023-03-24T11:45:36;96483.34;;;16.98;57.81
60228;BME280;46091;46.512;6.626;2023-03-24T11:47:41;96481.75;;;16.97;57.96
60228;BME280;46091;46.512;6.626;2023-03-24T11:49:51;96480.38;;;16.95;57.65
60228;BME280;46091;46.512;6.626;2023-03-24T11:51:56;96479.72;;;16.87;57.65
60228;BME280;46091;46.512;6.626;2023-03-24T11:54:02;96489.34;;;16.88;57.76
60228;BME280;46091;46.512;6.626;2023-03-24T11:56:10;96498.63;;;16.86;57.61
60228;BME280;46091;46.512;6.626;2023-03-24T11:58:24;96495.06;;;16.80;57.64
60228;BME280;46091;46.512;6.626;2023-03-24T12:00:32;96488.13;;;16.79;57.62
60228;BME280;46091;46.512;6.626;2023-03-24T12:02:50;96496.69;;;16.81;57.82
60228;BME280;46091;46.512;6.626;2023-03-24T12:05:18;96497.00;;;16.85;57.82
60228;BME280;46091;46.512;6.626;2023-03-24T12:07:45;96485.06;;;16.87;57.47
60228;BME280;46091;46.512;6.626;2023-03-24T12:09:53;96489.56;;;16.87;57.45
60228;BME280;46091;46.512;6.626;2023-03-24T12:12:16;96497.38;;;16.88;57.63
60228;BME280;46091;46.512;6.626;2023-03-24T12:14:30;96496.31;;;16.90;57.62
60228;BME280;46091;46.512;6.626;2023-03-24T12:16:44;96496.56;;;16.88;57.46
60228;BME280;46091;46.512;6.626;2023-03-24T12:19:05;96506.06;;;16.84;57.74
60228;BME280;46091;46.512;6.626;2023-03-24T12:21:20;96504.13;;;16.79;57.55
60228;BME280;46091;46.512;6.626;2023-03-24T12:23:33;96493.09;;;16.76;57.58
60228;BME280;46091;46.512;6.626;2023-03-24T12:25:52;96494.41;;;16.73;57.58
60228;BME280;46091;46.512;6.626;2023-03-24T12:28:13;96504.84;;;16.75;57.52
60228;BME280;46091;46.512;6.626;2023-03-24T12:30:27;96499.28;;;16.76;57.44
60228;BME280;46091;46.512;6.626;2023-03-24T12:32:44;96493.94;;;16.76;57.90
60228;BME280;46091;46.512;6.626;2023-03-24T12:37:27;96506.25;;;16.77;57.62
60228;BME280;46091;46.512;6.626;2023-03-24T12:39:36;96505.66;;;16.75;57.73
60228;BME280;46091;46.512;6.626;2023-03-24T12:41:53;96504.28;;;16.73;57.74
60228;BME280;46091;46.512;6.626;2023-03-24T12:46:38;96497.31;;;16.72;57.87
60228;BME280;46091;46.512;6.626;2023-03-24T12:49:00;96488.00;;;16.74;57.73
60228;BME280;46091;46.512;6.626;2023-03-24T12:51:21;96496.03;;;16.74;57.99
60228;BME280;46091;46.512;6.626;2023-03-24T12:53:45;96494.66;;;16.72;57.97
60228;BME280;46091;46.512;6.626;2023-03-24T12:55:56;96494.66;;;16.72;58.02
60228;BME280;46091;46.512;6.626;2023-03-24T12:58:04;96488.81;;;16.75;57.88
60228;BME280;46091;46.512;6.626;2023-03-24T13:00:14;96493.09;;;16.76;58.20
60228;BME280;46091;46.512;6.626;2023-03-24T13:02:24;96497.63;;;16.75;58.13
60228;BME280;46091;46.512;6.626;2023-03-24T13:04:31;96494.41;;;16.73;58.17
60228;BME280;46091;46.512;6.626;2023-03-24T13:06:40;96489.88;;;16.74;58.17
60228;BME280;46091;46.512;6.626;2023-03-24T13:08:55;96501.34;;;16.74;58.17
60228;BME280;46091;46.512;6.626;2023-03-24T13:11:04;96504.50;;;16.71;58.10
60228;BME280;46091;46.512;6.626;2023-03-24T13:13:31;96511.34;;;16.67;58.17
60228;BME280;46091;46.512;6.626;2023-03-24T13:15:38;96510.09;;;16.58;58.30
60228;BME280;46091;46.512;6.626;2023-03-24T13:17:47;96498.88;;;16.56;58.51
60228;BME280;46091;46.512;6.626;2023-03-24T13:19:54;96494.78;;;16.53;58.71
60228;BME280;46091;46.512;6.626;2023-03-24T13:22:01;96485.41;;;16.51;58.61
60228;BME280;46091;46.512;6.626;2023-03-24T13:24:07;96491.00;;;16.49;58.70
60228;BME280;46091;46.512;6.626;2023-03-24T13:26:25;96481.59;;;16.47;58.67
60228;BME280;46091;46.512;6.626;2023-03-24T13:28:45;96485.91;;;16.48;58.63
60228;BME280;46091;46.512;6.626;2023-03-24T13:30:50;96486.84;;;16.42;58.60
60228;BME280;46091;46.512;6.626;2023-03-24T13:32:54;96482.34;;;16.42;58.54
60228;BME280;46091;46.512;6.626;2023-03-24T13:35:06;96484.75;;;16.44;58.57
60228;BME280;46091;46.512;6.626;2023-03-24T13:37:18;96482.66;;;16.46;58.73
60228;BME280;46091;46.512;6.626;2023-03-24T13:39:24;96491.22;;;16.48;58.51
60228;BME280;46091;46.512;6.626;2023-03-24T13:41:32;96489.38;;;16.48;58.66
60228;BME280;46091;46.512;6.626;2023-03-24T13:43:46;96495.75;;;16.47;58.56
60228;BME280;46091;46.512;6.626;2023-03-24T13:45:51;96485.09;;;16.47;58.44
60228;BME280;46091;46.512;6.626;2023-03-24T13:48:13;96486.38;;;16.45;58.36
60228;BME280;46091;46.512;6.626;2023-03-24T13:50:18;96493.34;;;16.46;58.31
60228;BME280;46091;46.512;6.626;2023-03-24T13:52:27;96480.00;;;16.46;58.26
60228;BME280;46091;46.512;6.626;2023-03-24T13:54:30;96481.59;;;16.47;58.26
60228;BME280;46091;46.512;6.626;2023-03-24T13:56:38;96495.75;;;16.47;58.26
60228;BME280;46091;46.512;6.626;2023-03-24T13:58:46;96488.00;;;16.46;58.06
60228;BME280;46091;46.512;6.626;2023-03-24T14:01:15;96501.34;;;16.46;58.22
60228;BME280;46091;46.512;6.626;2023-03-24T14:03:31;96498.66;;;16.46;58.07
60228;BME280;46091;46.512;6.626;2023-03-24T14:05:56;96490.66;;;16.46;57.96
60228;BME280;46091;46.512;6.626;2023-03-24T14:08:15;96490.91;;;16.44;57.98
60228;BME280;46091;46.512;6.626;2023-03-24T14:10:37;96492.75;;;16.44;58.14
60228;BME280;46091;46.512;6.626;2023-03-24T14:12:51;96495.44;;;16.44;58.26
60228;BME280;46091;46.512;6.626;2023-03-24T14:15:11;96495.44;;;16.44;57.82
60228;BME280;46091;46.512;6.626;2023-03-24T14:17:15;96485.56;;;16.44;57.82
60228;BME280;46091;46.512;6.626;2023-03-24T14:19:23;96494.63;;;16.43;57.76
60228;BME280;46091;46.512;6.626;2023-03-24T14:21:28;96493.81;;;16.43;57.73
60228;BME280;46091;46.512;6.626;2023-03-24T14:23:37;96500.78;;;16.44;57.70
60228;BME280;46091;46.512;6.626;2023-03-24T14:25:52;96495.44;;;16.44;57.78
60228;BME280;46091;46.512;6.626;2023-03-24T14:28:09;96508.16;;;16.42;57.75
60228;BME280;46091;46.512;6.626;2023-03-24T14:30:19;96501.22;;;16.41;57.91
60228;BME280;46091;46.512;6.626;2023-03-24T14:32:23;96503.88;;;16.41;57.55
60228;BME280;46091;46.512;6.626;2023-03-24T14:34:26;96511.56;;;16.37;57.79
60228;BME280;46091;46.512;6.626;2023-03-24T14:36:31;96518.75;;;16.37;57.72
60228;BME280;46091;46.512;6.626;2023-03-24T14:38:43;96501.69;;;16.38;57.54
60228;BME280;46091;46.512;6.626;2023-03-24T14:40:48;96506.22;;;16.37;57.59
60228;BME280;46091;46.512;6.626;2023-03-24T14:43:15;96518.66;;;16.32;57.84
60228;BME280;46091;46.512;6.626;2023-03-24T14:45:41;96517.00;;;16.30;57.69
60228;BME280;46091;46.512;6.626;2023-03-24T14:47:56;96505.53;;;16.30;57.65
60228;BME280;46091;46.512;6.626;2023-03-24T14:50:11;96501.50;;;16.27;57.92
60228;BME280;46091;46.512;6.626;2023-03-24T14:52:18;96501.72;;;16.26;57.78
60228;BME280;46091;46.512;6.626;2023-03-24T14:54:28;96503.59;;;16.25;57.72
60228;BME280;46091;46.512;6.626;2023-03-24T14:56:37;96514.25;;;16.25;57.89
60228;BME280;46091;46.512;6.626;2023-03-24T14:58:43;96504.06;;;16.22;58.04
60228;BME280;46091;46.512;6.626;2023-03-24T15:00:51;96507.78;;;16.21;58.01
60228;BME280;46091;46.512;6.626;2023-03-24T15:03:16;96503.25;;;16.22;58.07
60228;BME280;46091;46.512;6.626;2023-03-24T15:05:28;96493.84;;;16.19;58.24
60228;BME280;46091;46.512;6.626;2023-03-24T15:07:31;96491.66;;;16.16;58.16
60228;BME280;46091;46.512;6.626;2023-03-24T15:09:36;96486.81;;;16.13;57.91
60228;BME280;46091;46.512;6.626;2023-03-24T15:11:40;96491.81;;;16.10;58.20
60228;BME280;46091;46.512;6.626;2023-03-24T15:13:47;96477.66;;;16.09;58.15
60228;BME280;46091;46.512;6.626;2023-03-24T15:15:51;96475.00;;;16.09;58.20
60228;BME280;46091;46.512;6.626;2023-03-24T15:17:54;96482.75;;;16.11;58.29
60228;BME280;46091;46.512;6.626;2023-03-24T15:19:57;96486.25;;;16.11;58.29
60228;BME280;46091;46.512;6.626;2023-03-24T15:22:02;96485.44;;;16.11;58.30
60228;BME280;46091;46.512;6.626;2023-03-24T15:24:26;96484.03;;;16.08;58.53
60228;BME280;46091;46.512;6.626;2023-03-24T15:26:32;96489.59;;;16.07;58.34
60228;BME280;46091;46.512;6.626;2023-03-24T15:28:36;96482.19;;;16.09;58.38
60228;BME280;46091;46.512;6.626;2023-03-24T15:30:39;96492.03;;;16.08;58.50
60228;BME280;46091;46.512;6.626;2023-03-24T15:32:42;96497.34;;;16.08;58.71
60228;BME280;46091;46.512;6.626;2023-03-24T15:34:48;96506.41;;;16.07;58.57
60228;BME280;46091;46.512;6.626;2023-03-24T15:36:53;96492.50;;;16.05;58.80
60228;BME280;46091;46.512;6.626;2023-03-24T15:38:56;96489.03;;;16.05;58.79
60228;BME280;46091;46.512;6.626;2023-03-24T15:41:01;96506.31;;;16.02;59.05
60228;BME280;46091;46.512;6.626;2023-03-24T15:43:15;96510.59;;;16.03;58.87
60228;BME280;46091;46.512;6.626;2023-03-24T15:45:24;96507.34;;;16.01;58.85
60228;BME280;46091;46.512;6.626;2023-03-24T15:47:31;96518.00;;;16.01;58.94
60228;BME280;46091;46.512;6.626;2023-03-24T15:49:45;96529.38;;;15.96;59.20
60228;BME280;46091;46.512;6.626;2023-03-24T15:51:50;96545.97;;;15.98;59.09
60228;BME280;46091;46.512;6.626;2023-03-24T15:53:57;96550.94;;;15.95;59.14
60228;BME280;46091;46.512;6.626;2023-03-24T15:56:11;96564.16;;;15.90;59.02
60228;BME280;46091;46.512;6.626;2023-03-24T15:58:22;96569.72;;;15.88;59.02
60228;BME280;46091;46.512;6.626;2023-03-24T16:00:27;96579.56;;;15.88;59.33
60228;BME280;46091;46.512;6.626;2023-03-24T16:02:34;96580.81;;;15.85;59.15
60228;BME280;46091;46.512;6.626;2023-03-24T16:04:39;96582.25;;;15.88;59.23
60228;BME280;46091;46.512;6.626;2023-03-24T16:06:47;96580.63;;;15.87;59.44
60228;BME280;46091;46.512;6.626;2023-03-24T16:08:57;96581.66;;;15.86;59.36
60228;BME280;46091;46.512;6.626;2023-03-24T16:11:03;96581.06;;;15.84;59.41
60228;BME280;46091;46.512;6.626;2023-03-24T16:13:13;96582.34;;;15.81;59.40
60228;BME280;46091;46.512;6.626;2023-03-24T16:15:18;96585.25;;;15.80;59.47
60228;BME280;46091;46.512;6.626;2023-03-24T16:17:21;96575.88;;;15.77;59.48
60228;BME280;46091;46.512;6.626;2023-03-24T16:19:24;96569.72;;;15.77;59.41
60228;BME280;46091;46.512;6.626;2023-03-24T16:21:28;96572.81;;;15.73;59.60
60228;BME280;46091;46.512;6.626;2023-03-24T16:23:31;96581.06;;;15.72;59.34
60228;BME280;46091;46.512;6.626;2023-03-24T16:25:34;96580.25;;;15.71;59.41
60228;BME280;46091;46.512;6.626;2023-03-24T16:27:38;96570.06;;;15.68;59.58
60228;BME280;46091;46.512;6.626;2023-03-24T16:29:41;96579.31;;;15.66;59.13
60228;BME280;46091;46.512;6.626;2023-03-24T16:31:47;96575.47;;;15.62;59.22
60228;BME280;46091;46.512;6.626;2023-03-24T16:33:50;96580.44;;;15.58;59.07
60228;BME280;46091;46.512;6.626;2023-03-24T16:35:53;96581.47;;;15.57;58.92
60228;BME280;46091;46.512;6.626;2023-03-24T16:37:56;96581.72;;;15.56;58.85
60228;BME280;46091;46.512;6.626;2023-03-24T16:39:59;96586.09;;;15.50;58.89
60228;BME280;46091;46.512;6.626;2023-03-24T16:42:04;96590.84;;;15.48;58.75
60228;BME280;46091;46.512;6.626;2023-03-24T16:44:07;96587.03;;;15.44;58.78
60228;BME280;46091;46.512;6.626;2023-03-24T16:46:12;96585.25;;;15.38;58.32
60228;BME280;46091;46.512;6.626;2023-03-24T16:48:17;96600.66;;;15.36;58.21
60228;BME280;46091;46.512;6.626;2023-03-24T16:50:27;96607.03;;;15.35;58.31
60228;BME280;46091;46.512;6.626;2023-03-24T16:52:31;96616.06;;;15.34;58.18
60228;BME280;46091;46.512;6.626;2023-03-24T16:54:34;96618.50;;;15.35;57.96
60228;BME280;46091;46.512;6.626;2023-03-24T16:56:37;96618.72;;;15.34;58.09
60228;BME280;46091;46.512;6.626;2023-03-24T16:58:40;96626.72;;;15.34;57.71
60228;BME280;46091;46.512;6.626;2023-03-24T17:00:43;96621.16;;;15.35;57.60
60228;BME280;46091;46.512;6.626;2023-03-24T17:02:49;96615.59;;;15.37;57.69
60228;BME280;46091;46.512;6.626;2023-03-24T17:04:56;96615.59;;;15.37;57.52
60228;BME280;46091;46.512;6.626;2023-03-24T17:06:59;96609.22;;;15.38;57.29
60228;BME280;46091;46.512;6.626;2023-03-24T17:09:02;96611.91;;;15.38;57.29
60228;BME280;46091;46.512;6.626;2023-03-24T17:11:08;96611.66;;;15.39;57.69
60228;BME280;46091;46.512;6.626;2023-03-24T17:13:15;96639.09;;;15.40;57.28
60228;BME280;46091;46.512;6.626;2023-03-24T17:15:21;96627.66;;;15.39;57.44
60228;BME280;46091;46.512;6.626;2023-03-24T17:17:24;96625.78;;;15.40;57.37
60228;BME280;46091;46.512;6.626;2023-03-24T17:19:27;96624.78;;;15.41;57.13
60228;BME280;46091;46.512;6.626;2023-03-24T17:21:33;96615.13;;;15.40;57.12
60228;BME280;46091;46.512;6.626;2023-03-24T17:23:38;96604.72;;;15.38;57.03
60228;BME280;46091;46.512;6.626;2023-03-24T17:25:41;96624.97;;;15.39;57.36
60228;BME280;46091;46.512;6.626;2023-03-24T17:27:45;96630.31;;;15.39;56.94
60228;BME280;46091;46.512;6.626;2023-03-24T17:29:48;96623.59;;;15.37;57.04
60228;BME280;46091;46.512;6.626;2023-03-24T17:31:52;96623.34;;;15.38;57.20
60228;BME280;46091;46.512;6.626;2023-03-24T17:33:55;96632.63;;;15.36;57.11
60228;BME280;46091;46.512;6.626;2023-03-24T17:36:00;96631.00;;;15.35;57.15
60228;BME280;46091;46.512;6.626;2023-03-24T17:38:05;96632.03;;;15.34;57.19
60228;BME280;46091;46.512;6.626;2023-03-24T17:40:09;96636.22;;;15.30;57.35